sensor_id;sensor_type;location;lat;lon;timestamp;P1;durP1;ratioP1;P2;durP2;ratioP2
5882;SDS011;2967;51.488;6.618;2023-07-02T00:00:30;3.50;;;3.20;;
5882;SDS011;2967;51.488;6.618;2023-07-02T00:05:33;5.13;;;3.37;;
5882;SDS011;2967;51.488;6.618;2023-07-02T00:10:35;7.70;;;3.50;;
5882;SDS011;2967;51.488;6.618;2023-07-02T00:15:43;5.70;;;3.73;;
5882;SDS011;2967;51.488;6.618;2023-07-02T00:20:46;10.07;;;4.07;;
5882;SDS011;2967;51.488;6.618;2023-07-02T00:25:49;6.37;;;3.63;;
5882;SDS011;2967;51.488;6.618;2023-07-02T00:30:56;8.73;;;4.40;;
5882;SDS011;2967;51.488;6.618;2023-07-02T00:35:59;8.60;;;4.10;;
5882;SDS011;2967;51.488;6.618;2023-07-02T00:41:07;7.30;;;4.30;;
5882;SDS011;2967;51.488;6.618;2023-07-02T00:46:20;8.60;;;4.90;;
5882;SDS011;2967;51.488;6.618;2023-07-02T00:51:24;5.27;;;3.97;;
5882;SDS011;2967;51.488;6.618;2023-07-02T00:56:29;7.57;;;4.27;;
5882;SDS011;2967;51.488;6.618;2023-07-02T01:01:33;8.77;;;4.67;;
5882;SDS011;2967;51.488;6.618;2023-07-02T01:06:39;7.30;;;4.23;;
5882;SDS011;2967;51.488;6.618;2023-07-02T01:11:43;10.53;;;4.17;;
5882;SDS011;2967;51.488;6.618;2023-07-02T01:16:55;8.67;;;4.63;;
5882;SDS011;2967;51.488;6.618;2023-07-02T01:22:06;6.40;;;4.17;;
5882;SDS011;2967;51.488;6.618;2023-07-02T01:27:10;8.80;;;5.50;;
5882;SDS011;2967;51.488;6.618;2023-07-02T01:32:13;11.87;;;5.70;;
5882;SDS011;2967;51.488;6.618;2023-07-02T01:37:17;10.90;;;5.27;;
5882;SDS011;2967;51.488;6.618;2023-07-02T01:42:23;10.43;;;6.27;;
5882;SDS011;2967;51.488;6.618;2023-07-02T01:47:26;11.00;;;6.60;;
5882;SDS011;2967;51.488;6.618;2023-07-02T01:52:33;16.47;;;5.70;;
5882;SDS011;2967;51.488;6.618;2023-07-02T01:57:36;12.40;;;6.50;;
5882;SDS011;2967;51.488;6.618;2023-07-02T02:02:39;12.87;;;6.40;;
5882;SDS011;2967;51.488;6.618;2023-07-02T02:07:43;12.50;;;7.00;;
5882;SDS011;2967;51.488;6.618;2023-07-02T02:12:46;17.00;;;8.20;;
5882;SDS011;2967;51.488;6.618;2023-07-02T02:17:49;13.20;;;7.00;;
5882;SDS011;2967;51.488;6.618;2023-07-02T02:22:56;19.60;;;8.40;;
5882;SDS011;2967;51.488;6.618;2023-07-02T02:27:59;14.93;;;7.50;;
5882;SDS011;2967;51.488;6.618;2023-07-02T02:33:01;15.60;;;8.17;;
5882;SDS011;2967;51.488;6.618;2023-07-02T02:38:06;22.60;;;10.30;;
5882;SDS011;2967;51.488;6.618;2023-07-02T02:43:09;17.57;;;9.23;;
5882;SDS011;2967;51.488;6.618;2023-07-02T02:48:12;23.43;;;10.80;;
5882;SDS011;2967;51.488;6.618;2023-07-02T02:53:16;22.43;;;9.40;;
5882;SDS011;2967;51.488;6.618;2023-07-02T02:58:25;22.03;;;10.60;;
5882;SDS011;2967;51.488;6.618;2023-07-02T03:03:29;14.60;;;9.60;;
5882;SDS011;2967;51.488;6.618;2023-07-02T03:08:36;23.33;;;11.10;;
5882;SDS011;2967;51.488;6.618;2023-07-02T03:13:39;20.60;;;10.97;;
5882;SDS011;2967;51.488;6.618;2023-07-02T03:18:42;19.07;;;10.23;;
5882;SDS011;2967;51.488;6.618;2023-07-02T03:23:46;19.00;;;10.70;;
5882;SDS011;2967;51.488;6.618;2023-07-02T03:28:49;22.63;;;10.80;;
5882;SDS011;2967;51.488;6.618;2023-07-02T03:33:52;27.63;;;10.70;;
5882;SDS011;2967;51.488;6.618;2023-07-02T03:38:56;17.60;;;10.17;;
5882;SDS011;2967;51.488;6.618;2023-07-02T03:43:59;23.07;;;10.67;;
5882;SDS011;2967;51.488;6.618;2023-07-02T03:49:02;18.80;;;12.43;;
5882;SDS011;2967;51.488;6.618;2023-07-02T03:54:07;23.30;;;11.47;;
5882;SDS011;2967;51.488;6.618;2023-07-02T03:59:09;21.80;;;11.77;;
5882;SDS011;2967;51.488;6.618;2023-07-02T04:04:12;23.23;;;12.63;;
5882;SDS011;2967;51.488;6.618;2023-07-02T04:09:16;18.43;;;11.03;;
5882;SDS011;2967;51.488;6.618;2023-07-02T04:14:20;21.07;;;12.80;;
5882;SDS011;2967;51.488;6.618;2023-07-02T04:19:23;20.27;;;13.00;;
5882;SDS011;2967;51.488;6.618;2023-07-02T04:24:28;23.27;;;13.00;;
5882;SDS011;2967;51.488;6.618;2023-07-02T04:29:32;21.97;;;13.53;;
5882;SDS011;2967;51.488;6.618;2023-07-02T04:34:35;25.30;;;13.97;;
5882;SDS011;2967;51.488;6.618;2023-07-02T04:39:40;24.70;;;13.40;;
5882;SDS011;2967;51.488;6.618;2023-07-02T04:44:43;21.83;;;13.30;;
5882;SDS011;2967;51.488;6.618;2023-07-02T04:49:45;25.50;;;14.03;;
5882;SDS011;2967;51.488;6.618;2023-07-02T04:54:50;26.50;;;14.00;;
5882;SDS011;2967;51.488;6.618;2023-07-02T04:59:53;24.50;;;14.50;;
5882;SDS011;2967;51.488;6.618;2023-07-02T05:04:56;31.13;;;14.90;;
5882;SDS011;2967;51.488;6.618;2023-07-02T05:10:01;24.27;;;13.73;;
5882;SDS011;2967;51.488;6.618;2023-07-02T05:15:04;24.60;;;15.60;;
5882;SDS011;2967;51.488;6.618;2023-07-02T05:20:11;26.67;;;14.33;;
5882;SDS011;2967;51.488;6.618;2023-07-02T05:25:18;23.40;;;13.50;;
5882;SDS011;2967;51.488;6.618;2023-07-02T05:30:21;26.53;;;15.40;;
5882;SDS011;2967;51.488;6.618;2023-07-02T05:35:24;27.67;;;13.90;;
5882;SDS011;2967;51.488;6.618;2023-07-02T05:40:28;24.13;;;14.60;;
5882;SDS011;2967;51.488;6.618;2023-07-02T05:45:31;31.23;;;15.10;;
5882;SDS011;2967;51.488;6.618;2023-07-02T05:50:33;26.50;;;13.63;;
5882;SDS011;2967;51.488;6.618;2023-07-02T05:55:38;30.20;;;15.17;;
5882;SDS011;2967;51.488;6.618;2023-07-02T06:00:43;30.10;;;14.77;;
5882;SDS011;2967;51.488;6.618;2023-07-02T06:05:51;28.33;;;13.57;;
5882;SDS011;2967;51.488;6.618;2023-07-02T06:10:56;25.87;;;14.27;;
5882;SDS011;2967;51.488;6.618;2023-07-02T06:15:59;30.57;;;13.07;;
5882;SDS011;2967;51.488;6.618;2023-07-02T06:21:07;25.63;;;13.87;;
5882;SDS011;2967;51.488;6.618;2023-07-02T06:26:11;25.73;;;12.53;;
5882;SDS011;2967;51.488;6.618;2023-07-02T06:31:14;25.83;;;12.17;;
5882;SDS011;2967;51.488;6.618;2023-07-02T06:36:17;24.30;;;11.87;;
5882;SDS011;2967;51.488;6.618;2023-07-02T06:41:21;20.93;;;10.80;;
5882;SDS011;2967;51.488;6.618;2023-07-02T06:46:24;18.90;;;10.00;;
5882;SDS011;2967;51.488;6.618;2023-07-02T06:51:27;19.90;;;11.00;;
5882;SDS011;2967;51.488;6.618;2023-07-02T06:56:31;19.87;;;10.50;;
5882;SDS011;2967;51.488;6.618;2023-07-02T07:01:35;22.93;;;10.70;;
5882;SDS011;2967;51.488;6.618;2023-07-02T07:06:40;19.07;;;10.47;;
5882;SDS011;2967;51.488;6.618;2023-07-02T07:11:45;17.17;;;9.83;;
5882;SDS011;2967;51.488;6.618;2023-07-02T07:16:47;21.13;;;10.70;;
5882;SDS011;2967;51.488;6.618;2023-07-02T07:21:50;21.90;;;9.13;;
5882;SDS011;2967;51.488;6.618;2023-07-02T07:26:54;20.63;;;9.83;;
5882;SDS011;2967;51.488;6.618;2023-07-02T07:31:57;19.07;;;9.17;;
5882;SDS011;2967;51.488;6.618;2023-07-02T07:37:00;21.87;;;10.30;;
5882;SDS011;2967;51.488;6.618;2023-07-02T07:42:05;25.70;;;10.07;;
5882;SDS011;2967;51.488;6.618;2023-07-02T07:47:08;16.63;;;8.90;;
5882;SDS011;2967;51.488;6.618;2023-07-02T07:52:11;19.60;;;9.57;;
5882;SDS011;2967;51.488;6.618;2023-07-02T07:57:15;16.80;;;8.63;;
5882;SDS011;2967;51.488;6.618;2023-07-02T08:02:18;14.20;;;8.17;;
5882;SDS011;2967;51.488;6.618;2023-07-02T08:07:23;14.90;;;8.50;;
5882;SDS011;2967;51.488;6.618;2023-07-02T08:12:45;16.93;;;7.20;;
5882;SDS011;2967;51.488;6.618;2023-07-02T08:17:50;17.33;;;8.33;;
5882;SDS011;2967;51.488;6.618;2023-07-02T08:22:55;17.50;;;7.47;;
5882;SDS011;2967;51.488;6.618;2023-07-02T08:28:01;16.20;;;8.40;;
5882;SDS011;2967;51.488;6.618;2023-07-02T08:33:04;15.60;;;7.33;;
5882;SDS011;2967;51.488;6.618;2023-07-02T08:38:10;12.73;;;6.83;;
5882;SDS011;2967;51.488;6.618;2023-07-02T08:43:16;12.03;;;7.03;;
5882;SDS011;2967;51.488;6.618;2023-07-02T08:48:19;12.63;;;6.50;;
5882;SDS011;2967;51.488;6.618;2023-07-02T08:53:24;13.27;;;7.07;;
5882;SDS011;2967;51.488;6.618;2023-07-02T08:58:32;14.80;;;6.90;;
5882;SDS011;2967;51.488;6.618;2023-07-02T09:03:35;14.40;;;6.73;;
5882;SDS011;2967;51.488;6.618;2023-07-02T09:08:39;12.83;;;6.67;;
5882;SDS011;2967;51.488;6.618;2023-07-02T09:13:46;13.83;;;6.50;;
5882;SDS011;2967;51.488;6.618;2023-07-02T09:18:57;17.80;;;7.87;;
5882;SDS011;2967;51.488;6.618;2023-07-02T09:24:11;11.63;;;6.40;;
5882;SDS011;2967;51.488;6.618;2023-07-02T09:34:42;14.00;;;6.63;;
5882;SDS011;2967;51.488;6.618;2023-07-02T09:39:47;13.03;;;6.60;;
5882;SDS011;2967;51.488;6.618;2023-07-02T09:44:54;11.53;;;6.00;;
5882;SDS011;2967;51.488;6.618;2023-07-02T09:49:59;14.53;;;7.50;;
5882;SDS011;2967;51.488;6.618;2023-07-02T09:55:07;11.53;;;7.13;;
5882;SDS011;2967;51.488;6.618;2023-07-02T10:00:14;12.17;;;5.83;;
5882;SDS011;2967;51.488;6.618;2023-07-02T10:05:27;12.87;;;5.90;;
5882;SDS011;2967;51.488;6.618;2023-07-02T10:10:31;13.37;;;6.40;;
5882;SDS011;2967;51.488;6.618;2023-07-02T10:15:35;12.23;;;5.83;;
5882;SDS011;2967;51.488;6.618;2023-07-02T10:20:41;12.37;;;6.90;;
5882;SDS011;2967;51.488;6.618;2023-07-02T10:25:44;14.50;;;6.37;;
5882;SDS011;2967;51.488;6.618;2023-07-02T10:30:48;11.93;;;6.13;;
5882;SDS011;2967;51.488;6.618;2023-07-02T10:35:54;12.37;;;5.47;;
5882;SDS011;2967;51.488;6.618;2023-07-02T10:41:00;13.20;;;7.07;;
5882;SDS011;2967;51.488;6.618;2023-07-02T10:46:04;12.13;;;6.87;;
5882;SDS011;2967;51.488;6.618;2023-07-02T10:51:12;13.73;;;6.40;;
5882;SDS011;2967;51.488;6.618;2023-07-02T10:56:15;15.07;;;6.90;;
5882;SDS011;2967;51.488;6.618;2023-07-02T11:01:23;13.07;;;7.23;;
5882;SDS011;2967;51.488;6.618;2023-07-02T11:06:29;18.63;;;7.03;;
5882;SDS011;2967;51.488;6.618;2023-07-02T11:11:33;15.30;;;6.43;;
5882;SDS011;2967;51.488;6.618;2023-07-02T11:16:43;15.30;;;6.07;;
5882;SDS011;2967;51.488;6.618;2023-07-02T11:21:50;13.40;;;5.90;;
5882;SDS011;2967;51.488;6.618;2023-07-02T11:26:53;16.90;;;6.47;;
5882;SDS011;2967;51.488;6.618;2023-07-02T11:32:11;11.47;;;6.10;;
5882;SDS011;2967;51.488;6.618;2023-07-02T11:37:48;19.80;;;7.23;;
5882;SDS011;2967;51.488;6.618;2023-07-02T11:42:56;12.00;;;6.20;;
5882;SDS011;2967;51.488;6.618;2023-07-02T11:48:38;12.80;;;6.63;;
5882;SDS011;2967;51.488;6.618;2023-07-02T11:54:25;14.13;;;6.83;;
5882;SDS011;2967;51.488;6.618;2023-07-02T11:59:30;15.10;;;6.10;;
5882;SDS011;2967;51.488;6.618;2023-07-02T12:04:53;12.10;;;6.47;;
5882;SDS011;2967;51.488;6.618;2023-07-02T12:10:23;14.30;;;6.43;;
5882;SDS011;2967;51.488;6.618;2023-07-02T12:15:31;11.07;;;6.47;;
5882;SDS011;2967;51.488;6.618;2023-07-02T12:20:35;14.37;;;6.43;;
5882;SDS011;2967;51.488;6.618;2023-07-02T12:25:39;12.10;;;6.27;;
5882;SDS011;2967;51.488;6.618;2023-07-02T12:30:43;13.93;;;7.30;;
5882;SDS011;2967;51.488;6.618;2023-07-02T12:35:47;16.20;;;6.20;;
5882;SDS011;2967;51.488;6.618;2023-07-02T12:40:51;10.87;;;6.17;;
5882;SDS011;2967;51.488;6.618;2023-07-02T12:45:54;12.27;;;6.93;;
5882;SDS011;2967;51.488;6.618;2023-07-02T12:50:59;14.70;;;6.73;;
5882;SDS011;2967;51.488;6.618;2023-07-02T12:56:04;17.93;;;7.30;;
5882;SDS011;2967;51.488;6.618;2023-07-02T13:01:10;13.20;;;8.13;;
5882;SDS011;2967;51.488;6.618;2023-07-02T13:06:14;12.77;;;7.80;;
5882;SDS011;2967;51.488;6.618;2023-07-02T13:11:16;16.33;;;8.60;;
5882;SDS011;2967;51.488;6.618;2023-07-02T13:16:19;17.97;;;8.90;;
5882;SDS011;2967;51.488;6.618;2023-07-02T13:21:23;18.97;;;8.03;;
5882;SDS011;2967;51.488;6.618;2023-07-02T13:26:26;16.93;;;8.47;;
5882;SDS011;2967;51.488;6.618;2023-07-02T13:31:30;16.10;;;8.23;;
5882;SDS011;2967;51.488;6.618;2023-07-02T13:36:34;16.37;;;8.70;;
5882;SDS011;2967;51.488;6.618;2023-07-02T13:41:37;17.70;;;8.23;;
5882;SDS011;2967;51.488;6.618;2023-07-02T13:46:40;20.90;;;9.77;;
5882;SDS011;2967;51.488;6.618;2023-07-02T13:51:44;16.23;;;7.93;;
5882;SDS011;2967;51.488;6.618;2023-07-02T13:56:48;19.23;;;9.50;;
5882;SDS011;2967;51.488;6.618;2023-07-02T14:01:52;16.57;;;8.67;;
5882;SDS011;2967;51.488;6.618;2023-07-02T14:06:55;17.60;;;9.37;;
5882;SDS011;2967;51.488;6.618;2023-07-02T14:11:59;20.20;;;8.10;;
5882;SDS011;2967;51.488;6.618;2023-07-02T14:17:03;20.83;;;8.37;;
5882;SDS011;2967;51.488;6.618;2023-07-02T14:22:07;13.50;;;8.43;;
5882;SDS011;2967;51.488;6.618;2023-07-02T14:27:10;14.10;;;8.17;;
5882;SDS011;2967;51.488;6.618;2023-07-02T14:32:14;13.23;;;7.43;;
5882;SDS011;2967;51.488;6.618;2023-07-02T14:37:17;17.77;;;8.87;;
5882;SDS011;2967;51.488;6.618;2023-07-02T14:42:20;16.00;;;8.27;;
5882;SDS011;2967;51.488;6.618;2023-07-02T14:47:24;13.03;;;7.70;;
5882;SDS011;2967;51.488;6.618;2023-07-02T14:52:28;15.17;;;8.13;;
5882;SDS011;2967;51.488;6.618;2023-07-02T14:57:31;15.67;;;7.40;;
5882;SDS011;2967;51.488;6.618;2023-07-02T15:02:36;15.40;;;7.80;;
5882;SDS011;2967;51.488;6.618;2023-07-02T15:07:40;13.83;;;7.00;;
5882;SDS011;2967;51.488;6.618;2023-07-02T15:12:43;17.40;;;7.70;;
5882;SDS011;2967;51.488;6.618;2023-07-02T15:17:48;12.70;;;6.90;;
5882;SDS011;2967;51.488;6.618;2023-07-02T15:22:52;12.47;;;6.53;;
5882;SDS011;2967;51.488;6.618;2023-07-02T15:27:57;18.07;;;6.60;;
5882;SDS011;2967;51.488;6.618;2023-07-02T15:33:09;20.33;;;7.23;;
5882;SDS011;2967;51.488;6.618;2023-07-02T15:38:15;20.17;;;7.00;;
5882;SDS011;2967;51.488;6.618;2023-07-02T15:43:19;14.23;;;6.90;;
5882;SDS011;2967;51.488;6.618;2023-07-02T15:48:25;14.17;;;6.57;;
5882;SDS011;2967;51.488;6.618;2023-07-02T15:53:29;18.40;;;7.07;;
5882;SDS011;2967;51.488;6.618;2023-07-02T15:58:32;10.70;;;5.80;;
5882;SDS011;2967;51.488;6.618;2023-07-02T16:03:37;15.00;;;7.70;;
5882;SDS011;2967;51.488;6.618;2023-07-02T16:08:41;13.23;;;6.60;;
5882;SDS011;2967;51.488;6.618;2023-07-02T16:13:46;10.17;;;6.53;;
5882;SDS011;2967;51.488;6.618;2023-07-02T16:18:50;12.50;;;6.17;;
5882;SDS011;2967;51.488;6.618;2023-07-02T16:23:57;13.43;;;5.83;;
5882;SDS011;2967;51.488;6.618;2023-07-02T16:29:01;13.07;;;6.27;;
5882;SDS011;2967;51.488;6.618;2023-07-02T16:34:09;10.17;;;5.63;;
5882;SDS011;2967;51.488;6.618;2023-07-02T16:39:13;20.67;;;6.70;;
5882;SDS011;2967;51.488;6.618;2023-07-02T16:44:20;10.53;;;6.30;;
5882;SDS011;2967;51.488;6.618;2023-07-02T16:49:29;9.30;;;5.70;;
5882;SDS011;2967;51.488;6.618;2023-07-02T16:54:34;17.07;;;7.00;;
5882;SDS011;2967;51.488;6.618;2023-07-02T16:59:37;13.60;;;6.10;;
5882;SDS011;2967;51.488;6.618;2023-07-02T17:04:43;10.90;;;6.67;;
5882;SDS011;2967;51.488;6.618;2023-07-02T17:09:47;12.10;;;6.57;;
5882;SDS011;2967;51.488;6.618;2023-07-02T17:14:51;11.90;;;6.60;;
5882;SDS011;2967;51.488;6.618;2023-07-02T17:20:00;18.43;;;7.17;;
5882;SDS011;2967;51.488;6.618;2023-07-02T17:25:03;10.40;;;5.90;;
5882;SDS011;2967;51.488;6.618;2023-07-02T17:30:08;16.37;;;7.07;;
5882;SDS011;2967;51.488;6.618;2023-07-02T17:35:14;11.20;;;6.23;;
5882;SDS011;2967;51.488;6.618;2023-07-02T17:40:18;9.40;;;5.77;;
5882;SDS011;2967;51.488;6.618;2023-07-02T17:45:32;11.30;;;6.07;;
5882;SDS011;2967;51.488;6.618;2023-07-02T17:50:37;13.17;;;6.97;;
5882;SDS011;2967;51.488;6.618;2023-07-02T17:55:40;15.20;;;7.50;;
5882;SDS011;2967;51.488;6.618;2023-07-02T18:00:44;10.30;;;5.77;;
5882;SDS011;2967;51.488;6.618;2023-07-02T18:05:49;16.33;;;6.53;;
5882;SDS011;2967;51.488;6.618;2023-07-02T18:10:53;16.97;;;6.60;;
5882;SDS011;2967;51.488;6.618;2023-07-02T18:15:59;14.17;;;6.50;;
5882;SDS011;2967;51.488;6.618;2023-07-02T18:21:04;12.90;;;6.47;;
5882;SDS011;2967;51.488;6.618;2023-07-02T18:26:08;11.83;;;6.33;;
5882;SDS011;2967;51.488;6.618;2023-07-02T18:31:13;14.87;;;6.13;;
5882;SDS011;2967;51.488;6.618;2023-07-02T18:36:19;12.30;;;5.80;;
5882;SDS011;2967;51.488;6.618;2023-07-02T18:41:22;18.57;;;6.83;;
5882;SDS011;2967;51.488;6.618;2023-07-02T18:46:26;15.07;;;7.20;;
5882;SDS011;2967;51.488;6.618;2023-07-02T18:51:31;12.57;;;6.40;;
5882;SDS011;2967;51.488;6.618;2023-07-02T18:56:35;15.47;;;6.83;;
5882;SDS011;2967;51.488;6.618;2023-07-02T19:01:38;13.67;;;6.23;;
5882;SDS011;2967;51.488;6.618;2023-07-02T19:06:44;15.27;;;6.73;;
5882;SDS011;2967;51.488;6.618;2023-07-02T19:11:47;14.43;;;6.30;;
5882;SDS011;2967;51.488;6.618;2023-07-02T19:16:51;11.80;;;6.50;;
5882;SDS011;2967;51.488;6.618;2023-07-02T19:21:58;12.67;;;6.40;;
5882;SDS011;2967;51.488;6.618;2023-07-02T19:27:05;17.23;;;5.80;;
5882;SDS011;2967;51.488;6.618;2023-07-02T19:32:20;13.00;;;5.63;;
5882;SDS011;2967;51.488;6.618;2023-07-02T19:37:25;14.07;;;6.13;;
5882;SDS011;2967;51.488;6.618;2023-07-02T19:42:29;10.70;;;5.10;;
5882;SDS011;2967;51.488;6.618;2023-07-02T19:47:33;12.73;;;5.80;;
5882;SDS011;2967;51.488;6.618;2023-07-02T19:52:40;12.83;;;5.70;;
5882;SDS011;2967;51.488;6.618;2023-07-02T19:57:44;11.77;;;5.63;;
5882;SDS011;2967;51.488;6.618;2023-07-02T20:02:47;10.20;;;5.60;;
5882;SDS011;2967;51.488;6.618;2023-07-02T20:07:53;11.83;;;5.93;;
5882;SDS011;2967;51.488;6.618;2023-07-02T20:12:59;10.20;;;5.07;;
5882;SDS011;2967;51.488;6.618;2023-07-02T20:18:03;10.83;;;6.00;;
5882;SDS011;2967;51.488;6.618;2023-07-02T20:23:08;11.47;;;5.80;;
5882;SDS011;2967;51.488;6.618;2023-07-02T20:28:12;11.80;;;5.07;;
5882;SDS011;2967;51.488;6.618;2023-07-02T20:33:16;13.23;;;5.70;;
5882;SDS011;2967;51.488;6.618;2023-07-02T20:38:21;10.87;;;5.23;;
5882;SDS011;2967;51.488;6.618;2023-07-02T20:43:28;12.83;;;5.70;;
5882;SDS011;2967;51.488;6.618;2023-07-02T20:48:32;14.53;;;5.63;;
5882;SDS011;2967;51.488;6.618;2023-07-02T20:53:37;11.23;;;5.83;;
5882;SDS011;2967;51.488;6.618;2023-07-02T20:58:41;12.23;;;6.03;;
5882;SDS011;2967;51.488;6.618;2023-07-02T21:03:45;11.80;;;5.70;;
5882;SDS011;2967;51.488;6.618;2023-07-02T21:08:49;12.93;;;5.20;;
5882;SDS011;2967;51.488;6.618;2023-07-02T21:13:52;11.73;;;6.10;;
5882;SDS011;2967;51.488;6.618;2023-07-02T21:18:55;9.87;;;5.23;;
5882;SDS011;2967;51.488;6.618;2023-07-02T21:23:59;10.70;;;6.03;;
5882;SDS011;2967;51.488;6.618;2023-07-02T21:29:05;12.90;;;5.60;;
5882;SDS011;2967;51.488;6.618;2023-07-02T21:34:09;10.27;;;5.90;;
5882;SDS011;2967;51.488;6.618;2023-07-02T21:39:16;10.50;;;5.57;;
5882;SDS011;2967;51.488;6.618;2023-07-02T21:44:19;9.77;;;5.67;;
5882;SDS011;2967;51.488;6.618;2023-07-02T21:49:22;13.27;;;5.83;;
5882;SDS011;2967;51.488;6.618;2023-07-02T21:54:26;12.93;;;5.77;;
5882;SDS011;2967;51.488;6.618;2023-07-02T21:59:30;13.13;;;5.00;;
5882;SDS011;2967;51.488;6.618;2023-07-02T22:04:33;12.90;;;6.57;;
5882;SDS011;2967;51.488;6.618;2023-07-02T22:09:43;15.10;;;4.93;;
5882;SDS011;2967;51.488;6.618;2023-07-02T22:14:46;15.43;;;5.43;;
5882;SDS011;2967;51.488;6.618;2023-07-02T22:19:48;13.00;;;5.73;;
5882;SDS011;2967;51.488;6.618;2023-07-02T22:24:53;17.73;;;5.67;;
5882;SDS011;2967;51.488;6.618;2023-07-02T22:29:56;11.60;;;4.57;;
5882;SDS011;2967;51.488;6.618;2023-07-02T22:34:59;14.90;;;5.23;;
5882;SDS011;2967;51.488;6.618;2023-07-02T22:40:07;10.87;;;4.13;;
5882;SDS011;2967;51.488;6.618;2023-07-02T22:45:16;17.13;;;5.07;;
5882;SDS011;2967;51.488;6.618;2023-07-02T22:50:21;15.77;;;4.80;;
5882;SDS011;2967;51.488;6.618;2023-07-02T22:55:26;13.23;;;4.03;;
5882;SDS011;2967;51.488;6.618;2023-07-02T23:00:30;16.20;;;4.30;;
5882;SDS011;2967;51.488;6.618;2023-07-02T23:05:35;16.33;;;4.67;;
5882;SDS011;2967;51.488;6.618;2023-07-02T23:10:42;11.70;;;4.37;;
5882;SDS011;2967;51.488;6.618;2023-07-02T23:15:46;13.80;;;4.47;;
5882;SDS011;2967;51.488;6.618;2023-07-02T23:20:49;8.63;;;3.53;;
5882;SDS011;2967;51.488;6.618;2023-07-02T23:25:57;20.53;;;5.23;;
5882;SDS011;2967;51.488;6.618;2023-07-02T23:31:04;8.83;;;3.43;;
5882;SDS011;2967;51.488;6.618;2023-07-02T23:36:07;11.27;;;4.07;;
5882;SDS011;2967;51.488;6.618;2023-07-02T23:41:11;11.17;;;3.60;;
5882;SDS011;2967;51.488;6.618;2023-07-02T23:46:15;13.43;;;3.70;;
5882;SDS011;2967;51.488;6.618;2023-07-02T23:51:24;11.03;;;3.80;;
5882;SDS011;2967;51.488;6.618;2023-07-02T23:56:31;6.73;;;3.70;;
